Terminal Aerodrome Forecast
Issued by NWS

Home | Current Version | Previous Version | Text Only | Print | Product List | Glossary On
Versions: 1 2 3 4 5 6 7 8 9 10 11 12 13 14 15 16 17
000
FTUS46 KLOX 280500 RRA
TAFPRB
TAF
KPRB 280547Z 2806/0106 30008KT P6SM SCT035 OVC050
     FM281100 VRB03KT P6SM VCSH SCT025 OVC040
     FM281500 10005KT P6SM SCT025 OVC040
      TEMPO 2815/2818 P6SM -SHRA OVC035
     FM281800 30006KT 6SM -SHRA BR SCT025 BKN040
     FM282100 22012KT 6SM -SHRA BR SCT025 OVC035
     FM010500 VRB03KT P6SM VCSH OVC030=

USA.gov is the U.S. government's official web portal to all federal, state and local government web resources and services.